createdAt,value
2022-12-25T00:01:47.996Z,100623.00
2022-12-25T00:04:14.709Z,100619.00
2022-12-25T00:06:41.396Z,100614.00
2022-12-25T00:09:07.910Z,100619.00
2022-12-25T00:11:34.596Z,100611.00
2022-12-25T00:14:01.103Z,100611.00
2022-12-25T00:16:27.777Z,100616.00
2022-12-25T00:18:56.062Z,100617.00
2022-12-25T00:21:22.655Z,100617.00
2022-12-25T00:23:54.388Z,100623.00
2022-12-25T00:26:20.997Z,100617.00
2022-12-25T00:28:47.527Z,100616.00
2022-12-25T00:31:16.198Z,100634.00
2022-12-25T00:33:44.082Z,100627.00
2022-12-25T00:36:11.608Z,100636.00
2022-12-25T00:38:39.450Z,100646.00
2022-12-25T00:41:09.806Z,100637.00
2022-12-25T00:43:36.642Z,100635.00
2022-12-25T00:46:05.455Z,100639.00
2022-12-25T00:48:32.820Z,100642.00
2022-12-25T00:51:06.690Z,100648.00
2022-12-25T00:53:33.698Z,100643.00
2022-12-25T00:56:03.299Z,100641.00
2022-12-25T00:58:30.552Z,100648.00
2022-12-25T01:00:57.302Z,100650.00
2022-12-25T01:03:24.738Z,100665.00
2022-12-25T01:06:02.247Z,100669.00
2022-12-25T01:08:37.264Z,100667.00
2022-12-25T01:11:08.611Z,100674.00
2022-12-25T01:13:37.412Z,100682.00
2022-12-25T01:16:09.518Z,100632.00
2022-12-25T01:18:36.282Z,100672.00
2022-12-25T01:21:07.619Z,100671.00
2022-12-25T01:23:34.174Z,100680.00
2022-12-25T01:26:07.932Z,100687.00
2022-12-25T01:28:35.230Z,100682.00
2022-12-25T01:31:02.541Z,100693.00
2022-12-25T01:33:29.144Z,100679.00
2022-12-25T01:35:55.781Z,100701.00
2022-12-25T01:38:22.316Z,100699.00
2022-12-25T01:40:48.833Z,100700.00
2022-12-25T01:43:30.593Z,100698.00
2022-12-25T01:45:57.818Z,100711.00
2022-12-25T01:48:33.092Z,100699.00
2022-12-25T01:51:11.612Z,100710.00
2022-12-25T01:53:38.102Z,100726.00
2022-12-25T01:56:07.138Z,100707.00
2022-12-25T01:58:34.134Z,100710.00
2022-12-25T02:01:05.138Z,100711.00
2022-12-25T02:03:31.826Z,100708.00
2022-12-25T02:05:59.419Z,100718.00
2022-12-25T02:08:26.147Z,100719.00
2022-12-25T02:10:52.700Z,100723.00
2022-12-25T02:13:19.733Z,100731.00
2022-12-25T02:16:06.566Z,100732.00
2022-12-25T02:18:44.560Z,100730.00
2022-12-25T02:21:23.243Z,100726.00
2022-12-25T02:24:00.725Z,100730.00
2022-12-25T02:26:40.890Z,100732.00
2022-12-25T02:29:27.444Z,100721.00
2022-12-25T02:32:14.787Z,100735.00
2022-12-25T02:34:49.103Z,100736.00
2022-12-25T02:37:24.233Z,100740.00
2022-12-25T02:39:59.720Z,100741.00
2022-12-25T02:42:53.830Z,100751.00
2022-12-25T02:45:45.191Z,100744.00
2022-12-25T02:48:31.668Z,100750.00
2022-12-25T02:51:17.906Z,100744.00
2022-12-25T02:54:04.271Z,100753.00
2022-12-25T02:56:49.562Z,100749.00
2022-12-25T02:59:35.820Z,100754.00
2022-12-25T03:02:22.020Z,100758.00
2022-12-25T03:05:07.966Z,100753.00
2022-12-25T03:07:37.847Z,100748.00
2022-12-25T03:10:26.348Z,100754.00
2022-12-25T03:13:12.534Z,100746.00
2022-12-25T03:15:57.732Z,100727.00
2022-12-25T03:18:26.640Z,100750.00
2022-12-25T03:21:12.873Z,100731.00
2022-12-25T03:24:00.075Z,100747.00
2022-12-25T03:26:46.508Z,100737.00
2022-12-25T03:29:35.833Z,100733.00
2022-12-25T03:32:36.000Z,100755.00
2022-12-25T03:35:25.486Z,100750.00
2022-12-25T03:38:32.171Z,100744.00
2022-12-25T03:41:44.708Z,100760.00
2022-12-25T03:44:42.445Z,100758.00
2022-12-25T03:47:32.766Z,100772.00
2022-12-25T03:50:20.752Z,100765.00
2022-12-25T03:53:07.182Z,100773.00
2022-12-25T03:55:52.903Z,100765.00
2022-12-25T03:58:42.039Z,100772.00
2022-12-25T04:01:26.964Z,100781.00
2022-12-25T04:04:12.392Z,100774.00
2022-12-25T04:06:57.450Z,100777.00
2022-12-25T04:09:42.842Z,100783.00
2022-12-25T04:12:28.365Z,100776.00
2022-12-25T04:15:13.818Z,100784.00
2022-12-25T04:17:59.378Z,100784.00
2022-12-25T04:20:44.536Z,100791.00
2022-12-25T04:23:29.557Z,100786.00
2022-12-25T04:26:17.925Z,100786.00
2022-12-25T04:29:03.359Z,100788.00
2022-12-25T04:31:48.535Z,100796.00
2022-12-25T04:34:33.775Z,100790.00
2022-12-25T04:37:00.269Z,100781.00
2022-12-25T04:39:26.768Z,100791.00
2022-12-25T04:41:53.266Z,100791.00
2022-12-25T04:44:19.748Z,100798.00
2022-12-25T04:46:46.353Z,100804.00
2022-12-25T04:49:12.954Z,100809.00
2022-12-25T04:51:39.455Z,100818.00
2022-12-25T04:54:05.918Z,100810.00
2022-12-25T04:56:33.061Z,100825.00
2022-12-25T04:58:59.682Z,100817.00
2022-12-25T05:01:26.423Z,100821.00
2022-12-25T05:03:53.014Z,100805.00
2022-12-25T05:06:19.594Z,100811.00
2022-12-25T05:08:46.181Z,100809.00
2022-12-25T05:11:14.510Z,100815.00
2022-12-25T05:13:41.323Z,100813.00
2022-12-25T05:16:11.173Z,100799.00
2022-12-25T05:18:37.697Z,100797.00
2022-12-25T05:21:04.603Z,100787.00
2022-12-25T05:23:31.621Z,100791.00
2022-12-25T05:25:58.251Z,100794.00
2022-12-25T05:28:24.759Z,100791.00
2022-12-25T05:30:51.261Z,100797.00
2022-12-25T05:33:17.936Z,100793.00
2022-12-25T05:35:44.495Z,100786.00
2022-12-25T05:38:11.054Z,100797.00
2022-12-25T05:40:40.356Z,100812.00
2022-12-25T05:43:07.168Z,100802.00
2022-12-25T05:45:33.724Z,100806.00
2022-12-25T05:48:00.358Z,100807.00
2022-12-25T05:50:27.208Z,100804.00
2022-12-25T05:53:11.630Z,100807.00
2022-12-25T05:55:39.775Z,100811.00
2022-12-25T05:58:07.768Z,100810.00
2022-12-25T06:00:34.462Z,100790.00
2022-12-25T06:03:01.250Z,100786.00
2022-12-25T06:05:28.058Z,100796.00
2022-12-25T06:07:54.625Z,100796.00
2022-12-25T06:10:21.572Z,100782.00
2022-12-25T06:12:48.190Z,100787.00
2022-12-25T06:15:14.842Z,100782.00
2022-12-25T06:17:41.368Z,100784.00
2022-12-25T06:20:08.663Z,100792.00
2022-12-25T06:22:35.442Z,100785.00
2022-12-25T06:25:02.183Z,100764.00
2022-12-25T06:27:28.861Z,100779.00
2022-12-25T06:29:55.568Z,100769.00
2022-12-25T06:32:22.128Z,100777.00
2022-12-25T06:34:48.803Z,100785.00
2022-12-25T06:37:15.443Z,100791.00
2022-12-25T06:39:42.013Z,100799.00
2022-12-25T06:42:08.545Z,100799.00
2022-12-25T06:44:35.048Z,100783.00
2022-12-25T06:47:01.557Z,100798.00
2022-12-25T06:49:28.219Z,100798.00
2022-12-25T06:51:54.733Z,100779.00
2022-12-25T06:54:21.298Z,100790.00
2022-12-25T06:56:48.632Z,100789.00
2022-12-25T06:59:15.185Z,100795.00
2022-12-25T07:01:48.816Z,100802.00
2022-12-25T07:04:28.421Z,100808.00
2022-12-25T07:06:56.198Z,100810.00
2022-12-25T07:09:22.824Z,100816.00
2022-12-25T07:11:49.415Z,100824.00
2022-12-25T07:14:23.443Z,100832.00
2022-12-25T07:16:50.890Z,100809.00
2022-12-25T07:19:17.480Z,100830.00
2022-12-25T07:21:44.047Z,100848.00
2022-12-25T07:24:11.566Z,100835.00
2022-12-25T07:26:38.083Z,100837.00
2022-12-25T07:29:04.630Z,100846.00
2022-12-25T07:31:33.880Z,100836.00
2022-12-25T07:34:00.428Z,100845.00
2022-12-25T07:36:28.042Z,100850.00
2022-12-25T07:38:54.675Z,100855.00
2022-12-25T07:41:21.244Z,100865.00
2022-12-25T07:43:52.250Z,100863.00
2022-12-25T07:46:23.353Z,100864.00
2022-12-25T07:48:50.143Z,100858.00
2022-12-25T07:51:16.793Z,100823.00
2022-12-25T07:53:43.506Z,100852.00
2022-12-25T07:56:13.076Z,100847.00
2022-12-25T07:58:39.868Z,100844.00
2022-12-25T08:01:19.371Z,100831.00
2022-12-25T08:03:54.986Z,100836.00
2022-12-25T08:06:23.015Z,100836.00
2022-12-25T08:08:49.666Z,100850.00
2022-12-25T08:11:16.227Z,100845.00
2022-12-25T08:13:42.779Z,100854.00
2022-12-25T08:16:11.052Z,100854.00
2022-12-25T08:18:38.710Z,100856.00
2022-12-25T08:21:10.470Z,100853.00
2022-12-25T08:23:38.864Z,100839.00
2022-12-25T08:26:06.922Z,100845.00
2022-12-25T08:28:34.471Z,100860.00
2022-12-25T08:31:21.370Z,100850.00
2022-12-25T08:33:49.022Z,100844.00
2022-12-25T08:36:16.313Z,100837.00
2022-12-25T08:38:43.479Z,100827.00
2022-12-25T08:41:14.885Z,100846.00
2022-12-25T08:43:41.680Z,100828.00
2022-12-25T08:46:08.650Z,100837.00
2022-12-25T08:48:35.594Z,100836.00
2022-12-25T08:51:02.286Z,100836.00
2022-12-25T08:53:28.815Z,100843.00
2022-12-25T08:56:00.364Z,100830.00
2022-12-25T08:58:28.153Z,100824.00
2022-12-25T09:00:55.151Z,100817.00
2022-12-25T09:03:22.563Z,100811.00
2022-12-25T09:05:49.126Z,100806.00
2022-12-25T09:08:15.806Z,100808.00
2022-12-25T09:10:42.417Z,100801.00
2022-12-25T09:13:09.759Z,100802.00
2022-12-25T09:15:38.720Z,100802.00
2022-12-25T09:18:05.974Z,100804.00
2022-12-25T09:20:32.649Z,100787.00
2022-12-25T09:22:59.295Z,100790.00
2022-12-25T09:25:25.990Z,100782.00
2022-12-25T09:27:52.573Z,100797.00
2022-12-25T09:30:19.216Z,100793.00
2022-12-25T09:32:45.802Z,100777.00
2022-12-25T09:35:13.916Z,100777.00
2022-12-25T09:37:40.451Z,100784.00
2022-12-25T09:40:07.908Z,100782.00
2022-12-25T09:42:34.609Z,100766.00
2022-12-25T09:45:10.845Z,100787.00
2022-12-25T09:47:38.671Z,100787.00
2022-12-25T09:50:15.568Z,100784.00
2022-12-25T09:53:10.912Z,100783.00
2022-12-25T09:55:43.945Z,100772.00
2022-12-25T09:58:12.980Z,100790.00
2022-12-25T10:00:46.892Z,100784.00
2022-12-25T10:03:13.476Z,100786.00
2022-12-25T10:06:10.701Z,100791.00
2022-12-25T10:08:55.989Z,100803.00
2022-12-25T10:11:33.314Z,100799.00
2022-12-25T10:14:10.721Z,100797.00
2022-12-25T10:16:43.150Z,100807.00
2022-12-25T10:19:24.944Z,100802.00
2022-12-25T10:21:55.023Z,100796.00
2022-12-25T10:24:37.037Z,100792.00
2022-12-25T10:27:10.222Z,100799.00
2022-12-25T10:29:38.488Z,100800.00
2022-12-25T10:32:05.346Z,100791.00
2022-12-25T10:34:32.838Z,100780.00
2022-12-25T10:36:59.432Z,100757.00
2022-12-25T10:39:27.712Z,100748.00
2022-12-25T10:42:13.023Z,100758.00
2022-12-25T10:44:39.653Z,100747.00
2022-12-25T10:47:06.336Z,100743.00
2022-12-25T10:49:37.778Z,100749.00
2022-12-25T10:52:18.999Z,100746.00
2022-12-25T10:54:45.633Z,100756.00
2022-12-25T10:57:17.894Z,100758.00
2022-12-25T10:59:52.507Z,100745.00
2022-12-25T11:02:29.281Z,100756.00
2022-12-25T11:05:02.708Z,100764.00
2022-12-25T11:07:29.940Z,100769.00
2022-12-25T11:10:02.699Z,100755.00
2022-12-25T11:12:42.964Z,100756.00
2022-12-25T11:15:38.832Z,100752.00
2022-12-25T11:18:21.540Z,100745.00
2022-12-25T11:21:00.830Z,100752.00
2022-12-25T11:23:29.693Z,100760.00
2022-12-25T11:26:02.270Z,100764.00
2022-12-25T11:28:31.048Z,100752.00
2022-12-25T11:31:03.447Z,100762.00
2022-12-25T11:33:35.700Z,100744.00
2022-12-25T11:36:09.549Z,100734.00
2022-12-25T11:38:36.111Z,100744.00
2022-12-25T11:41:04.609Z,100761.00
2022-12-25T11:43:40.637Z,100748.00
2022-12-25T11:46:16.800Z,100761.00
2022-12-25T11:48:44.552Z,100734.00
2022-12-25T11:51:13.336Z,100713.00
2022-12-25T11:53:44.715Z,100706.00
2022-12-25T11:56:30.646Z,100684.00
2022-12-25T11:59:02.263Z,100667.00
2022-12-25T12:01:35.066Z,100659.00
2022-12-25T12:04:03.717Z,100655.00
2022-12-25T12:06:54.628Z,100639.00
2022-12-25T12:09:53.499Z,100641.00
2022-12-25T12:12:29.064Z,100639.00
2022-12-25T12:15:14.347Z,100647.00
2022-12-25T12:17:40.916Z,100666.00
2022-12-25T12:20:28.309Z,100661.00
2022-12-25T12:22:55.136Z,100659.00
2022-12-25T12:25:21.956Z,100656.00
2022-12-25T12:27:56.328Z,100653.00
2022-12-25T12:30:27.783Z,100662.00
2022-12-25T12:32:58.585Z,100634.00
2022-12-25T12:35:31.416Z,100641.00
2022-12-25T12:38:04.885Z,100633.00
2022-12-25T12:40:39.003Z,100624.00
2022-12-25T12:43:07.139Z,100623.00
2022-12-25T12:45:36.279Z,100625.00
2022-12-25T12:48:15.949Z,100635.00
2022-12-25T12:50:46.119Z,100631.00
2022-12-25T12:53:22.024Z,100625.00
2022-12-25T12:55:49.033Z,100622.00
2022-12-25T12:58:35.913Z,100621.00
2022-12-25T13:01:45.640Z,100612.00
2022-12-25T13:04:31.823Z,100615.00
2022-12-25T13:07:16.589Z,100621.00
2022-12-25T13:10:03.927Z,100636.00
2022-12-25T13:12:30.588Z,100614.00
2022-12-25T13:14:58.384Z,100617.00
2022-12-25T13:17:25.466Z,100622.00
2022-12-25T13:19:55.779Z,100626.00
2022-12-25T13:22:33.848Z,100629.00
2022-12-25T13:25:04.884Z,100613.00
2022-12-25T13:27:33.277Z,100607.00
2022-12-25T13:29:59.935Z,100611.00
2022-12-25T13:32:29.024Z,100615.00
2022-12-25T13:34:55.731Z,100611.00
2022-12-25T13:37:24.873Z,100602.00
2022-12-25T13:39:54.833Z,100598.00
2022-12-25T13:42:24.372Z,100604.00
2022-12-25T13:44:56.464Z,100600.00
2022-12-25T13:47:32.230Z,100594.00
2022-12-25T13:50:01.306Z,100587.00
2022-12-25T13:52:33.579Z,100580.00
2022-12-25T13:55:10.870Z,100569.00
2022-12-25T13:57:40.246Z,100559.00
2022-12-25T14:00:15.766Z,100557.00
2022-12-25T14:02:42.787Z,100552.00
2022-12-25T14:05:42.166Z,100548.00
2022-12-25T14:08:15.920Z,100537.00
2022-12-25T14:10:45.575Z,100538.00
2022-12-25T14:13:12.617Z,100531.00
2022-12-25T14:15:39.847Z,100540.00
2022-12-25T14:18:06.571Z,100536.00
2022-12-25T14:21:04.519Z,100536.00
2022-12-25T14:23:43.232Z,100555.00
2022-12-25T14:26:22.078Z,100563.00
2022-12-25T14:28:51.845Z,100566.00
2022-12-25T14:31:19.116Z,100556.00
2022-12-25T14:33:46.312Z,100563.00
2022-12-25T14:36:13.609Z,100569.00
2022-12-25T14:38:42.421Z,100556.00
2022-12-25T14:41:33.201Z,100567.00
2022-12-25T14:44:02.034Z,100552.00
2022-12-25T14:46:31.342Z,100554.00
2022-12-25T14:49:06.650Z,100545.00
2022-12-25T14:51:38.157Z,100540.00
2022-12-25T14:54:13.640Z,100535.00
2022-12-25T14:56:41.271Z,100523.00
2022-12-25T14:59:17.450Z,100520.00
2022-12-25T15:01:44.647Z,100504.00
2022-12-25T15:04:11.186Z,100505.00
2022-12-25T15:06:55.920Z,100490.00
2022-12-25T15:09:23.317Z,100497.00
2022-12-25T15:11:50.726Z,100496.00
2022-12-25T15:14:17.678Z,100498.00
2022-12-25T15:16:49.731Z,100492.00
2022-12-25T15:19:25.274Z,100486.00
2022-12-25T15:21:53.180Z,100497.00
2022-12-25T15:24:19.687Z,100472.00
2022-12-25T15:26:50.212Z,100473.00
2022-12-25T15:29:44.712Z,100490.00
2022-12-25T15:32:21.876Z,100487.00
2022-12-25T15:34:49.803Z,100482.00
2022-12-25T15:37:17.571Z,100481.00
2022-12-25T15:39:44.653Z,100482.00
2022-12-25T15:42:16.905Z,100483.00
2022-12-25T15:44:44.584Z,100488.00
2022-12-25T15:47:15.939Z,100494.00
2022-12-25T15:49:43.354Z,100493.00
2022-12-25T15:52:13.691Z,100479.00
2022-12-25T15:54:40.840Z,100473.00
2022-12-25T15:57:19.576Z,100467.00
2022-12-25T15:59:46.234Z,100459.00
2022-12-25T16:02:19.641Z,100455.00
2022-12-25T16:04:46.866Z,100453.00
2022-12-25T16:07:23.192Z,100448.00
2022-12-25T16:09:49.894Z,100449.00
2022-12-25T16:12:16.931Z,100447.00
2022-12-25T16:14:43.518Z,100448.00
2022-12-25T16:17:15.471Z,100442.00
2022-12-25T16:19:44.575Z,100430.00
2022-12-25T16:22:14.734Z,100415.00
2022-12-25T16:24:41.358Z,100405.00
2022-12-25T16:27:08.015Z,100407.00
2022-12-25T16:29:34.526Z,100423.00
2022-12-25T16:32:01.082Z,100422.00
2022-12-25T16:34:27.659Z,100416.00
2022-12-25T16:36:56.233Z,100419.00
2022-12-25T16:39:22.860Z,100423.00
2022-12-25T16:41:49.388Z,100423.00
2022-12-25T16:44:15.945Z,100410.00
2022-12-25T16:46:42.564Z,100419.00
2022-12-25T16:49:09.225Z,100408.00
2022-12-25T16:51:35.766Z,100405.00
2022-12-25T16:54:02.481Z,100398.00
2022-12-25T16:56:30.725Z,100383.00
2022-12-25T16:58:58.093Z,100382.00
2022-12-25T17:01:30.798Z,100375.00
2022-12-25T17:04:01.488Z,100370.00
2022-12-25T17:06:28.596Z,100365.00
2022-12-25T17:08:59.627Z,100358.00
2022-12-25T17:11:30.185Z,100344.00
2022-12-25T17:14:03.486Z,100332.00
2022-12-25T17:16:33.113Z,100335.00
2022-12-25T17:19:09.543Z,100332.00
2022-12-25T17:21:41.005Z,100314.00
2022-12-25T17:24:07.982Z,100305.00
2022-12-25T17:26:34.765Z,100306.00
2022-12-25T17:29:01.481Z,100323.00
2022-12-25T17:31:28.561Z,100315.00
2022-12-25T17:33:55.411Z,100310.00
2022-12-25T17:36:22.897Z,100317.00
2022-12-25T17:38:49.877Z,100304.00
2022-12-25T17:41:18.628Z,100297.00
2022-12-25T17:43:45.953Z,100301.00
2022-12-25T17:46:18.472Z,100302.00
2022-12-25T17:48:45.900Z,100308.00
2022-12-25T17:51:16.243Z,100306.00
2022-12-25T17:53:48.387Z,100302.00
2022-12-25T17:56:15.645Z,100292.00
2022-12-25T17:58:42.924Z,100294.00
2022-12-25T18:01:15.372Z,100285.00
2022-12-25T18:03:42.963Z,100278.00
2022-12-25T18:06:14.604Z,100268.00
2022-12-25T18:08:42.404Z,100257.00
2022-12-25T18:11:15.494Z,100249.00
2022-12-25T18:13:48.300Z,100231.00
2022-12-25T18:16:16.151Z,100241.00
2022-12-25T18:18:51.961Z,100237.00
2022-12-25T18:21:20.852Z,100217.00
2022-12-25T18:23:47.644Z,100227.00
2022-12-25T18:26:14.375Z,100215.00
2022-12-25T18:28:42.533Z,100201.00
2022-12-25T18:31:32.430Z,100232.00
2022-12-25T18:33:59.704Z,100235.00
2022-12-25T18:36:27.387Z,100227.00
2022-12-25T18:38:55.227Z,100228.00
2022-12-25T18:41:23.142Z,100224.00
2022-12-25T18:43:53.089Z,100225.00
2022-12-25T18:46:24.202Z,100222.00
2022-12-25T18:48:51.552Z,100219.00
2022-12-25T18:51:18.493Z,100199.00
2022-12-25T18:53:45.372Z,100177.00
2022-12-25T18:56:17.474Z,100188.00
2022-12-25T18:58:45.260Z,100176.00
2022-12-25T19:01:17.713Z,100185.00
2022-12-25T19:03:45.355Z,100175.00
2022-12-25T19:06:20.110Z,100175.00
2022-12-25T19:08:46.736Z,100162.00
2022-12-25T19:11:13.423Z,100153.00
2022-12-25T19:13:40.118Z,100149.00
2022-12-25T19:16:07.335Z,100131.00
2022-12-25T19:18:33.947Z,100136.00
2022-12-25T19:21:05.265Z,100139.00
2022-12-25T19:23:31.912Z,100106.00
2022-12-25T19:25:58.454Z,100131.00
2022-12-25T19:28:25.366Z,100116.00
2022-12-25T19:30:54.842Z,100112.00
2022-12-25T19:33:22.699Z,100112.00
2022-12-25T19:35:49.616Z,100103.00
2022-12-25T19:38:16.367Z,100107.00
2022-12-25T19:41:00.028Z,100104.00
2022-12-25T19:43:31.566Z,100100.00
2022-12-25T19:45:59.364Z,100096.00
2022-12-25T19:48:25.993Z,100100.00
2022-12-25T19:50:53.130Z,100095.00
2022-12-25T19:53:23.089Z,100095.00
2022-12-25T19:55:53.025Z,100093.00
2022-12-25T19:58:20.580Z,100080.00
2022-12-25T20:01:00.639Z,100074.00
2022-12-25T20:03:27.555Z,100066.00
2022-12-25T20:05:54.566Z,100080.00
2022-12-25T20:08:21.096Z,100064.00
2022-12-25T20:10:47.649Z,100056.00
2022-12-25T20:13:14.165Z,100060.00
2022-12-25T20:15:40.810Z,100053.00
2022-12-25T20:18:07.522Z,100060.00
2022-12-25T20:20:34.131Z,100061.00
2022-12-25T20:23:00.756Z,100054.00
2022-12-25T20:25:27.285Z,100050.00
2022-12-25T20:27:53.856Z,100050.00
2022-12-25T20:30:20.395Z,100049.00
2022-12-25T20:32:50.621Z,100051.00
2022-12-25T20:35:17.619Z,100045.00
2022-12-25T20:37:44.501Z,100047.00
2022-12-25T20:40:11.858Z,100045.00
2022-12-25T20:42:38.401Z,100038.00
2022-12-25T20:45:07.366Z,100016.00
2022-12-25T20:47:34.867Z,100020.00
2022-12-25T20:50:01.391Z,100015.00
2022-12-25T20:52:28.098Z,100033.00
2022-12-25T20:54:57.190Z,100012.00
2022-12-25T20:57:25.287Z,100014.00
2022-12-25T20:59:54.541Z,100024.00
2022-12-25T21:02:34.136Z,100016.00
2022-12-25T21:05:02.198Z,100010.00
2022-12-25T21:07:36.040Z,100010.00
2022-12-25T21:10:04.285Z,100015.00
2022-12-25T21:12:30.846Z,100007.00
2022-12-25T21:14:57.420Z,100005.00
2022-12-25T21:17:30.211Z,99986.00
2022-12-25T21:19:57.804Z,99991.00
2022-12-25T21:22:24.333Z,99984.00
2022-12-25T21:24:54.412Z,99967.00
2022-12-25T21:27:23.458Z,99974.00
2022-12-25T21:29:56.608Z,99982.00
2022-12-25T21:32:45.520Z,99987.00
2022-12-25T21:35:12.056Z,99994.00
2022-12-25T21:37:38.592Z,99980.00
2022-12-25T21:40:05.519Z,99979.00
2022-12-25T21:42:31.981Z,99975.00
2022-12-25T21:44:58.529Z,99990.00
2022-12-25T21:47:25.159Z,99974.00
2022-12-25T21:50:26.886Z,99972.00
2022-12-25T21:52:53.447Z,99971.00
2022-12-25T21:55:19.993Z,99982.00
2022-12-25T21:57:46.549Z,99974.00
2022-12-25T22:00:13.369Z,99974.00
2022-12-25T22:02:40.032Z,99968.00
2022-12-25T22:05:06.930Z,99968.00
2022-12-25T22:07:33.438Z,99972.00
2022-12-25T22:10:00.018Z,99976.00
2022-12-25T22:12:59.039Z,99964.00
2022-12-25T22:15:43.976Z,99980.00
2022-12-25T22:18:29.136Z,99981.00
2022-12-25T22:20:55.620Z,99975.00
2022-12-25T22:23:22.114Z,99969.00
2022-12-25T22:25:48.628Z,99965.00
2022-12-25T22:28:15.199Z,99971.00
2022-12-25T22:30:44.371Z,99977.00
2022-12-25T22:33:11.077Z,99978.00
2022-12-25T22:35:37.604Z,99979.00
2022-12-25T22:38:04.574Z,99962.00
2022-12-25T22:40:31.058Z,99956.00
2022-12-25T22:42:57.642Z,99960.00
2022-12-25T22:45:24.370Z,99926.00
2022-12-25T22:47:51.069Z,99936.00
2022-12-25T22:50:17.728Z,99948.00
2022-12-25T22:52:45.655Z,99952.00
2022-12-25T22:55:12.501Z,99946.00
2022-12-25T22:57:39.034Z,99941.00
2022-12-25T23:00:08.602Z,99943.00
2022-12-25T23:02:35.158Z,99933.00
2022-12-25T23:05:02.339Z,99925.00
2022-12-25T23:07:28.849Z,99940.00
2022-12-25T23:09:55.390Z,99917.00
2022-12-25T23:12:40.211Z,99924.00
2022-12-25T23:15:07.245Z,99918.00
2022-12-25T23:17:52.295Z,99913.00
2022-12-25T23:20:37.721Z,99905.00
2022-12-25T23:23:22.557Z,99907.00
2022-12-25T23:26:07.608Z,99918.00
2022-12-25T23:28:57.058Z,99907.00
2022-12-25T23:31:29.754Z,99913.00
2022-12-25T23:33:57.363Z,99915.00
2022-12-25T23:36:24.201Z,99918.00
2022-12-25T23:38:50.828Z,99906.00
2022-12-25T23:41:17.362Z,99917.00
2022-12-25T23:43:43.844Z,99905.00
2022-12-25T23:46:10.378Z,99911.00
2022-12-25T23:48:36.931Z,99904.00
2022-12-25T23:51:04.447Z,99896.00
2022-12-25T23:53:31.611Z,99905.00
2022-12-25T23:55:58.267Z,99909.00
2022-12-25T23:58:26.788Z,99923.00
